This is the latest recevied weather packets stored in our database for station/object W5DNT. If no packets are shown the sender has not sent any weather packets the latest 10 day(s).
| Time | Temp. | Humidity | Pressure | Rain* | Wind** | Luminosity | Snow |
|---|---|---|---|---|---|---|---|
| 1777833934 | 25° C | 37% | 1020.3 hPa | 0 mm | - | - | - |
| 1777833019 | 25° C | 42% | 1020.7 hPa | 0 mm | - | - | - |
| 1777832115 | 24.44° C | 43% | 1021 hPa | 0 mm | - | - | - |
| 1777831221 | 24.44° C | 43% | 1021.2 hPa | 0 mm | - | - | - |
| 1777830312 | 24.44° C | 44% | 1021.6 hPa | 0 mm | - | - | - |
| 1777829414 | 23.89° C | 43% | 1021.8 hPa | 0 mm | - | - | - |
| 1777828508 | 23.89° C | 45% | 1021.9 hPa | 0 mm | - | - | - |
| 1777827607 | 23.89° C | 48% | 1022.2 hPa | 0 mm | - | - | - |
| 1777826704 | 23.33° C | 53% | 1022.4 hPa | 0 mm | - | - | - |
| 1777825802 | 23.33° C | 52% | 1022.5 hPa | 0 mm | - | - | - |
| 1777824960 | 22.78° C | 53% | 1022.5 hPa | 0 mm | - | - | - |
| 1777824056 | 22.22° C | 59% | 1022.6 hPa | 0 mm | - | - | - |
| 1777823154 | 22.22° C | 59% | 1022.7 hPa | 0 mm | - | - | - |
| 1777822252 | 21.11° C | 63% | 1022.8 hPa | 0 mm | - | - | - |
| 1777821352 | 20.56° C | 63% | 1022.8 hPa | 0 mm | - | - | - |
| 1777820444 | 20° C | 62% | 1022.8 hPa | 0 mm | - | - | - |
| 1777819541 | 19.44° C | 64% | 1022.8 hPa | 0 mm | - | - | - |
| 1777818637 | 18.89° C | 68% | 1022.7 hPa | 0 mm | - | - | - |
| 1777817732 | 17.78° C | 73% | 1022.7 hPa | 0 mm | - | - | - |
| 1777816828 | 17.22° C | 74% | 1022.7 hPa | 0 mm | - | - | - |
| 1777815924 | 16.11° C | 75% | 1022.6 hPa | 0 mm | - | - | - |
| 1777815019 | 15° C | 77% | 1022.5 hPa | 0 mm | - | - | - |
| 1777814115 | 13.89° C | 79% | 1022.5 hPa | 0 mm | - | - | - |
| 1777813212 | 12.22° C | 78% | 1022.5 hPa | 0 mm | - | - | - |
| 1777812310 | 11.67° C | 79% | 1022.4 hPa | 0 mm | - | - | - |
* Rain latest hour (hover to see other rain measurements)
** Current wind speed in m/s (hover to see current wind gust speed)